Delta Virtual Airport Information Service

Ontario International Airport

ICAO: KONT Country: United States
Latitude: 34.056 Longitude: -117.601
Latest Arrival : UPS9608 (1B) (KPDX-KONT) Latest Departure : UPS927 (1) (KONT-KRFD)


WX CaptureLIVE
Data provided by noaa.gov | Fetched at 23:08:11

METAR : KONT 250353Z 24008KT 10SM FEW250 22/12 A2990 RMK AO2 SLP113 T02170117

TAF :


Runway Data for KONT
Data provided by openaviationdata.com

Runway ID Mag Var Hdg Length Elevation Surface ILS Freq ILS Id ILS Slope
08L 14 75° 12185 ft 944 ft Asphalt 109.7 IAOD 3
08R 14 75° 10187 ft 944 ft Concrete -- -- --
26L 14 255° 10187 ft 944 ft Concrete 111.35 ITWO 3
26R 14 255° 12185 ft 944 ft Asphalt 109.7 IONT 3

Ontario International Airport, United States
Use only for reference purposes



Not for navigational purposes.